Terminal Aerodrome Forecast
Issued by NWS Charleston, SC

Home | Current Version | Previous Version | Text Only | Print | Product List | Glossary On
Versions: 1 2 3 4 5 6 7 8 9 10 11 12 13 14 15 16 17 18
000
FTUS42 KCHS 150100 AAA
TAFSAV
TAF AMD
KSAV 150152Z 1502/1524 12005KT P6SM VCTS SCT025CB SCT050 BKN150
      TEMPO 1502/1505 VRB20G25KT 6SM -TSRA SCT015 SCT025CB BKN035
     FM150500 VRB04KT P6SM VCSH SCT020 BKN035
      TEMPO 1505/1509 SCT015 BKN025
     FM150900 VRB03KT P6SM SCT009 OVC015
      TEMPO 1509/1513 BKN008
     FM151600 VRB05KT 6SM -SHRA VCTS SCT020 BKN030CB OVC050=

USA.gov is the U.S. government's official web portal to all federal, state and local government web resources and services.